Time;durP1;ratioP1;P1;durP2;ratioP2;P2;SDS_P1;SDS_P2;PMS_P1;PMS_P2;Temp;Humidity;BMP_temperature;BMP_pressure;BME280_temperature;BME280_humidity;BME280_pressure;Samples;Min_cycle;Max_cycle;Signal;HPM_P1;HPM_P2
2021/03/19 00:00:23;;;;;;;25.83;18.17;;;3.10;99.90;;;;;;5062546;28;20685;-78
2021/03/19 00:02:51;;;;;;;28.67;19.53;;;3.10;99.90;;;;;;5062049;28;20627;-77
2021/03/19 00:05:18;;;;;;;30.43;19.60;;;3.00;99.90;;;;;;5050704;28;20860;-78
2021/03/19 00:08:04;;;;;;;30.07;20.83;;;3.00;99.90;;;;;;5065766;28;20412;-77
2021/03/19 00:10:33;;;;;;;32.77;19.30;;;3.00;99.90;;;;;;5055716;28;20454;-79
2021/03/19 00:13:07;;;;;;;28.93;20.90;;;2.90;99.90;;;;;;5054100;28;20535;-78
2021/03/19 00:15:33;;;;;;;25.10;19.20;;;2.90;99.90;;;;;;5063196;28;20429;-79
2021/03/19 00:18:00;;;;;;;27.57;18.27;;;2.90;99.90;;;;;;5065033;28;20520;-79
2021/03/19 00:20:26;;;;;;;31.63;20.10;;;3.00;99.90;;;;;;5067289;28;20257;-80
2021/03/19 00:22:52;;;;;;;26.60;18.90;;;3.00;99.90;;;;;;5064381;28;20942;-80
2021/03/19 00:25:18;;;;;;;28.50;19.83;;;3.00;99.90;;;;;;5062826;28;20456;-80
2021/03/19 00:27:43;;;;;;;27.23;18.57;;;3.00;99.90;;;;;;5069626;28;20456;-81
2021/03/19 00:30:11;;;;;;;24.57;18.80;;;2.90;99.90;;;;;;5069901;28;20206;-78
2021/03/19 00:32:38;;;;;;;28.30;18.70;;;2.80;99.90;;;;;;5055796;28;20223;-80
2021/03/19 00:35:05;;;;;;;26.20;18.57;;;2.80;99.90;;;;;;5059108;28;20437;-80
2021/03/19 00:37:31;;;;;;;27.10;18.50;;;2.90;99.90;;;;;;5065574;28;20489;-81
2021/03/19 00:39:56;;;;;;;29.07;21.20;;;2.90;99.90;;;;;;5058028;28;20481;-80
2021/03/19 00:42:22;;;;;;;25.73;17.93;;;2.90;99.90;;;;;;5074961;28;20173;-82
2021/03/19 00:44:47;;;;;;;27.00;20.00;;;2.90;99.90;;;;;;5079466;28;20190;-81
2021/03/19 00:47:13;;;;;;;31.00;20.23;;;2.90;99.90;;;;;;5061660;28;20264;-80
2021/03/19 00:49:38;;;;;;;30.47;20.07;;;3.00;99.90;;;;;;5061243;28;20245;-78
2021/03/19 00:52:05;;;;;;;27.07;20.40;;;3.00;99.90;;;;;;5045620;28;20278;-78
2021/03/19 00:54:31;;;;;;;27.80;19.47;;;3.00;99.90;;;;;;5055242;28;20182;-79
2021/03/19 00:56:57;;;;;;;29.60;20.13;;;3.00;99.90;;;;;;5052151;28;20543;-78
2021/03/19 00:59:23;;;;;;;29.80;20.10;;;3.00;99.90;;;;;;5053088;28;20460;-78
2021/03/19 01:01:48;;;;;;;28.63;18.77;;;3.00;99.90;;;;;;5061485;28;20611;-78
2021/03/19 01:04:14;;;;;;;31.97;20.23;;;2.90;99.90;;;;;;5064975;28;20182;-78
2021/03/19 01:06:40;;;;;;;29.97;21.70;;;3.00;99.90;;;;;;5055315;28;20236;-79
2021/03/19 01:09:06;;;;;;;34.03;22.07;;;3.20;99.90;;;;;;5052042;28;20228;-78
2021/03/19 01:11:32;;;;;;;32.93;21.53;;;3.20;99.90;;;;;;5054941;28;20186;-79
2021/03/19 01:13:57;;;;;;;32.27;22.60;;;3.20;99.90;;;;;;5055413;28;20432;-78
2021/03/19 01:16:23;;;;;;;35.20;22.13;;;3.30;99.90;;;;;;5064391;28;20300;-78
2021/03/19 01:18:49;;;;;;;29.77;20.87;;;3.30;99.90;;;;;;5060973;28;20275;-78
2021/03/19 01:21:16;;;;;;;34.47;22.27;;;3.20;99.90;;;;;;5053192;28;20182;-78
2021/03/19 01:23:43;;;;;;;32.97;22.90;;;3.30;99.90;;;;;;5053249;28;20209;-77
2021/03/19 01:26:16;;;;;;;28.50;20.90;;;3.30;99.90;;;;;;5056013;28;21101;-77
2021/03/19 01:28:45;;;;;;;31.27;20.10;;;3.30;99.90;;;;;;5056838;28;20498;-79
2021/03/19 01:31:11;;;;;;;31.80;20.80;;;3.40;99.90;;;;;;5044196;28;20476;-77
2021/03/19 01:33:37;;;;;;;33.43;21.10;;;3.40;99.90;;;;;;5055361;28;20502;-80
2021/03/19 01:36:07;;;;;;;39.13;21.47;;;3.30;99.90;;;;;;5041972;28;20458;-77
2021/03/19 01:38:34;;;;;;;26.70;20.70;;;3.40;99.90;;;;;;5057019;28;20812;-79
2021/03/19 01:41:00;;;;;;;27.90;19.10;;;3.40;99.90;;;;;;5044597;28;20432;-79
2021/03/19 01:43:59;;;;;;;27.47;20.10;;;3.40;99.90;;;;;;5046313;28;20834;-78
2021/03/19 01:47:02;;;;;;;27.53;19.60;;;3.50;99.90;;;;;;5059759;28;20524;-79
2021/03/19 01:50:06;;;;;;;34.00;21.93;;;3.60;99.90;;;;;;5022824;28;20481;-78
2021/03/19 01:53:09;;;;;;;27.40;19.93;;;3.50;99.90;;;;;;5060680;28;20451;-80
2021/03/19 01:56:12;;;;;;;27.83;19.93;;;3.40;99.90;;;;;;5052122;28;20470;-77
2021/03/19 01:59:14;;;;;;;34.43;22.83;;;3.40;99.90;;;;;;5057299;28;20458;-78
2021/03/19 02:02:17;;;;;;;30.40;21.33;;;3.40;99.90;;;;;;5059207;28;20924;-79
2021/03/19 02:05:20;;;;;;;36.63;22.47;;;3.50;99.90;;;;;;5050575;28;20436;-80
2021/03/19 02:08:24;;;;;;;27.90;20.93;;;3.40;99.90;;;;;;5038156;28;20420;-78
2021/03/19 02:11:27;;;;;;;28.40;19.33;;;3.30;99.90;;;;;;5045843;28;20861;-78
2021/03/19 02:14:30;;;;;;;28.90;20.27;;;3.40;99.90;;;;;;5050123;28;20527;-80
2021/03/19 02:17:33;;;;;;;28.10;21.07;;;3.40;99.90;;;;;;5055170;28;20462;-78
2021/03/19 02:20:36;;;;;;;28.13;20.17;;;3.40;99.90;;;;;;5054899;28;20484;-78
2021/03/19 02:23:39;;;;;;;20.50;16.30;;;3.40;99.90;;;;;;5057201;28;20475;-79
2021/03/19 02:26:42;;;;;;;22.97;16.10;;;3.50;99.90;;;;;;5050233;28;20497;-79
2021/03/19 02:29:52;;;;;;;24.27;17.70;;;3.50;99.90;;;;;;5060778;28;20447;-79
2021/03/19 02:32:20;;;;;;;20.13;16.40;;;3.50;99.90;;;;;;5020837;28;20456;-80
2021/03/19 02:34:54;;;;;;;25.30;17.80;;;3.60;99.90;;;;;;5059646;28;20504;-79
2021/03/19 02:37:26;;;;;;;24.67;18.13;;;3.60;99.90;;;;;;5044125;28;20476;-79
2021/03/19 02:39:52;;;;;;;35.53;20.07;;;3.80;99.90;;;;;;5042906;28;20760;-77
2021/03/19 02:42:22;;;;;;;22.23;17.70;;;3.80;99.90;;;;;;5040130;28;20424;-80
2021/03/19 02:44:48;;;;;;;25.70;19.20;;;3.70;99.90;;;;;;5055674;28;20515;-79
2021/03/19 02:47:14;;;;;;;29.97;19.60;;;3.60;99.90;;;;;;5058398;28;20483;-79
2021/03/19 02:49:40;;;;;;;26.67;19.50;;;3.50;99.90;;;;;;5057438;28;20206;-78
2021/03/19 02:52:05;;;;;;;28.27;21.03;;;3.60;99.90;;;;;;5038431;28;20436;-81
2021/03/19 02:54:31;;;;;;;29.43;21.07;;;3.50;99.90;;;;;;5062493;28;20790;-78
2021/03/19 02:56:56;;;;;;;29.63;21.20;;;3.50;99.90;;;;;;5042029;28;20204;-79
2021/03/19 02:59:22;;;;;;;28.27;20.60;;;3.50;99.90;;;;;;5046743;28;20622;-78
2021/03/19 03:01:48;;;;;;;30.30;22.00;;;3.60;99.90;;;;;;5032747;28;20273;-78
2021/03/19 03:04:15;;;;;;;27.77;20.73;;;3.60;99.90;;;;;;5053114;28;20181;-80
2021/03/19 03:06:48;;;;;;;32.87;20.77;;;3.60;99.90;;;;;;5059195;28;20412;-79
2021/03/19 03:09:17;;;;;;;31.50;22.43;;;3.70;99.90;;;;;;5057610;28;20475;-78
2021/03/19 03:11:43;;;;;;;24.27;19.27;;;3.60;99.90;;;;;;5060941;28;20477;-80
2021/03/19 03:14:13;;;;;;;34.10;21.80;;;3.70;99.90;;;;;;5059719;28;20432;-80
2021/03/19 03:16:39;;;;;;;30.20;21.30;;;3.70;99.90;;;;;;5062513;28;20489;-80
2021/03/19 03:19:07;;;;;;;32.73;21.87;;;3.70;99.90;;;;;;5057123;28;20798;-77
2021/03/19 03:21:33;;;;;;;30.90;20.90;;;3.70;99.90;;;;;;5071876;28;20502;-78
2021/03/19 03:24:00;;;;;;;32.77;22.20;;;3.70;99.90;;;;;;5049296;28;20437;-79
2021/03/19 03:26:26;;;;;;;31.70;22.80;;;3.70;99.90;;;;;;5058008;28;20428;-78
2021/03/19 03:28:52;;;;;;;30.20;21.70;;;3.70;99.90;;;;;;5060275;28;20479;-78
2021/03/19 03:31:17;;;;;;;32.00;23.07;;;3.70;99.90;;;;;;5045960;28;20441;-79
2021/03/19 03:33:44;;;;;;;27.63;19.47;;;3.70;99.90;;;;;;5061812;28;20722;-78
2021/03/19 03:36:09;;;;;;;31.10;21.47;;;3.70;99.90;;;;;;5053898;28;20266;-77
2021/03/19 03:38:35;;;;;;;33.00;22.20;;;3.80;99.90;;;;;;5058835;28;20473;-77
2021/03/19 03:41:05;;;;;;;32.33;22.73;;;3.80;99.90;;;;;;5037464;28;20646;-77
2021/03/19 03:43:32;;;;;;;32.40;22.67;;;3.70;99.90;;;;;;5056262;28;20316;-78
2021/03/19 03:45:58;;;;;;;33.80;22.00;;;3.60;99.90;;;;;;5056505;28;20511;-79
2021/03/19 03:48:26;;;;;;;38.40;24.70;;;3.60;99.90;;;;;;5049434;28;20511;-79
2021/03/19 03:50:53;;;;;;;30.67;22.13;;;3.60;99.90;;;;;;5058929;28;20183;-78
2021/03/19 03:53:20;;;;;;;34.60;21.60;;;3.60;99.90;;;;;;5044439;28;20435;-79
2021/03/19 03:55:45;;;;;;;29.87;21.60;;;3.60;99.90;;;;;;5046728;28;20946;-78
2021/03/19 03:58:12;;;;;;;31.93;22.30;;;3.60;99.90;;;;;;5056950;28;20579;-78
2021/03/19 04:00:38;;;;;;;31.27;22.00;;;3.60;99.90;;;;;;5058366;28;20179;-76
2021/03/19 04:03:05;;;;;;;32.47;21.77;;;3.50;99.90;;;;;;5061826;28;20927;-79
2021/03/19 04:05:40;;;;;;;32.60;23.93;;;3.60;99.90;;;;;;5051557;28;20509;-77
2021/03/19 04:08:07;;;;;;;30.17;23.37;;;3.60;99.90;;;;;;5058044;28;20791;-78
2021/03/19 04:10:33;;;;;;;33.40;21.73;;;3.50;99.90;;;;;;5053550;28;20463;-79
2021/03/19 04:12:59;;;;;;;34.30;23.33;;;3.40;99.90;;;;;;5045185;28;20433;-79
2021/03/19 04:15:24;;;;;;;31.30;21.90;;;3.50;99.90;;;;;;5050501;28;20810;-78
2021/03/19 04:17:58;;;;;;;31.70;22.30;;;3.40;99.90;;;;;;5055753;28;20210;-78
2021/03/19 04:20:27;;;;;;;32.13;22.40;;;3.40;99.90;;;;;;5047459;28;20193;-80
2021/03/19 04:22:54;;;;;;;31.27;23.33;;;3.40;99.90;;;;;;5038204;28;20429;-80
2021/03/19 04:25:20;;;;;;;29.70;21.00;;;3.40;99.90;;;;;;5029963;28;20428;-79
2021/03/19 04:27:49;;;;;;;34.67;22.53;;;3.40;99.90;;;;;;5072760;28;20456;-81
2021/03/19 04:30:18;;;;;;;32.40;23.17;;;3.40;99.90;;;;;;5046702;28;20455;-81
2021/03/19 04:32:44;;;;;;;39.33;26.20;;;3.30;99.90;;;;;;5054393;28;20440;-81
2021/03/19 04:35:10;;;;;;;33.17;22.70;;;3.30;99.90;;;;;;5067974;28;20430;-79
2021/03/19 04:37:35;;;;;;;35.67;23.27;;;3.10;99.90;;;;;;5061665;28;20464;-81
2021/03/19 04:40:03;;;;;;;37.10;25.30;;;3.20;99.90;;;;;;5034465;28;20826;-80
2021/03/19 04:42:29;;;;;;;37.97;25.53;;;3.20;99.90;;;;;;5054595;28;20175;-79
2021/03/19 04:44:54;;;;;;;35.90;25.63;;;3.20;99.90;;;;;;5060637;28;20419;-80
2021/03/19 04:47:20;;;;;;;38.60;26.70;;;3.20;99.90;;;;;;5032419;28;20240;-79
2021/03/19 04:49:45;;;;;;;39.30;24.67;;;3.00;99.90;;;;;;5057980;28;20209;-78
2021/03/19 04:52:11;;;;;;;34.77;24.27;;;3.10;99.90;;;;;;5076325;28;20191;-79
2021/03/19 04:54:36;;;;;;;41.83;25.67;;;3.10;99.90;;;;;;5065138;28;20196;-78
2021/03/19 04:57:03;;;;;;;40.97;27.03;;;3.20;99.90;;;;;;5031803;28;20254;-79
2021/03/19 04:59:30;;;;;;;40.10;27.70;;;3.10;99.90;;;;;;5051307;28;20297;-79
2021/03/19 05:01:58;;;;;;;41.00;27.50;;;3.00;99.90;;;;;;5042349;28;20425;-80
2021/03/19 05:04:25;;;;;;;41.50;26.57;;;2.90;99.90;;;;;;5068241;28;20515;-81
2021/03/19 05:06:53;;;;;;;41.53;28.03;;;2.90;99.90;;;;;;5061532;28;20928;-79
2021/03/19 05:09:19;;;;;;;38.60;27.90;;;3.00;99.90;;;;;;5065436;28;20463;-78
2021/03/19 05:11:45;;;;;;;39.53;26.80;;;2.90;99.90;;;;;;5060120;28;20446;-80
2021/03/19 05:14:11;;;;;;;40.07;28.43;;;2.80;99.90;;;;;;5059221;28;20511;-80
2021/03/19 05:16:37;;;;;;;44.63;28.63;;;2.80;99.90;;;;;;5042164;28;20538;-82
2021/03/19 05:19:03;;;;;;;44.30;28.20;;;2.80;99.90;;;;;;5050168;28;20207;-80
2021/03/19 05:21:29;;;;;;;45.33;27.70;;;2.70;99.90;;;;;;5033625;28;20193;-81
2021/03/19 05:23:54;;;;;;;39.30;25.53;;;2.60;99.90;;;;;;5061346;28;20437;-81
2021/03/19 05:26:20;;;;;;;42.87;26.67;;;2.70;99.90;;;;;;5046354;28;20694;-77
2021/03/19 05:28:45;;;;;;;38.10;24.40;;;2.70;99.90;;;;;;5039763;28;20308;-81
2021/03/19 05:31:11;;;;;;;41.77;26.67;;;2.60;99.90;;;;;;5074000;28;20193;-78
2021/03/19 05:33:52;;;;;;;43.97;28.40;;;2.70;99.90;;;;;;5083106;28;20285;-79
2021/03/19 05:36:21;;;;;;;43.30;27.40;;;2.70;99.90;;;;;;5070179;28;20212;-80
2021/03/19 05:38:47;;;;;;;40.20;26.10;;;2.60;99.90;;;;;;5055643;28;20454;-81
2021/03/19 05:41:14;;;;;;;42.63;26.23;;;2.70;99.90;;;;;;5085093;28;20477;-81
2021/03/19 05:44:05;;;;;;;35.03;24.23;;;2.60;99.90;;;;;;5077730;28;20444;-81
2021/03/19 05:46:40;;;;;;;32.80;22.67;;;2.60;99.90;;;;;;5074170;28;20424;-79
2021/03/19 05:49:09;;;;;;;33.90;23.23;;;2.60;99.90;;;;;;5071430;28;20443;-82
2021/03/19 05:51:44;;;;;;;35.03;22.97;;;2.60;99.90;;;;;;5059004;28;20432;-81
2021/03/19 05:54:30;;;;;;;34.00;21.97;;;2.50;99.90;;;;;;5063433;28;20474;-79
2021/03/19 05:57:05;;;;;;;35.67;23.13;;;2.60;99.90;;;;;;5052229;28;20459;-77
2021/03/19 05:59:32;;;;;;;33.20;21.17;;;2.50;99.90;;;;;;5069278;28;20515;-81
2021/03/19 06:01:58;;;;;;;34.27;22.00;;;2.50;99.90;;;;;;5085226;28;20443;-81
2021/03/19 06:04:31;;;;;;;31.90;20.60;;;2.50;99.90;;;;;;5055222;28;20516;-80
2021/03/19 06:07:03;;;;;;;33.70;22.70;;;2.50;99.90;;;;;;5061396;28;20963;-80
2021/03/19 06:09:32;;;;;;;34.80;20.97;;;2.50;99.90;;;;;;5063508;28;20935;-80
2021/03/19 06:12:02;;;;;;;33.03;20.77;;;2.50;99.90;;;;;;5047592;28;20498;-82
2021/03/19 06:14:30;;;;;;;26.63;18.57;;;2.50;99.90;;;;;;5058154;28;20486;-80
2021/03/19 06:17:10;;;;;;;35.33;20.10;;;2.40;99.90;;;;;;5062244;28;20471;-79
2021/03/19 06:19:43;;;;;;;28.17;19.80;;;2.40;99.90;;;;;;5045967;28;20476;-80
2021/03/19 06:22:15;;;;;;;34.83;20.53;;;2.40;99.90;;;;;;5056599;28;20463;-81
2021/03/19 06:24:41;;;;;;;30.60;19.10;;;2.40;99.90;;;;;;5061778;28;20433;-78
2021/03/19 06:27:25;;;;;;;29.93;20.00;;;2.30;99.90;;;;;;5082907;28;20412;-77
2021/03/19 06:29:58;;;;;;;28.80;19.33;;;2.30;99.90;;;;;;5049760;28;20452;-79
2021/03/19 06:32:28;;;;;;;27.87;20.30;;;2.40;99.90;;;;;;5062658;28;20428;-80
2021/03/19 06:35:07;;;;;;;28.53;19.23;;;2.30;99.90;;;;;;5053787;28;20428;-79
2021/03/19 06:37:46;;;;;;;33.10;21.50;;;2.30;99.90;;;;;;5069577;28;20463;-79
2021/03/19 06:40:33;;;;;;;33.63;20.17;;;2.30;99.90;;;;;;5067877;28;20981;-80
2021/03/19 06:43:23;;;;;;;32.30;20.60;;;2.40;99.90;;;;;;5070178;28;20455;-81
2021/03/19 06:46:08;;;;;;;32.00;21.27;;;2.40;99.90;;;;;;5064765;28;20433;-79
2021/03/19 06:49:06;;;;;;;29.53;19.90;;;2.40;99.90;;;;;;5061867;28;20496;-80
2021/03/19 06:51:38;;;;;;;33.30;19.23;;;2.40;99.90;;;;;;4959148;29;20451;-80
2021/03/19 06:54:11;;;;;;;31.70;20.53;;;2.40;99.90;;;;;;4972291;29;20416;-81
2021/03/19 06:56:39;;;;;;;34.83;21.90;;;2.40;99.90;;;;;;4983891;28;20475;-79
2021/03/19 06:59:23;;;;;;;34.10;21.30;;;2.50;99.90;;;;;;4957742;28;20458;-79
2021/03/19 07:01:49;;;;;;;30.70;19.43;;;2.50;99.90;;;;;;4958056;28;20433;-79
2021/03/19 07:04:42;;;;;;;31.00;19.70;;;2.50;99.90;;;;;;4946206;29;20499;-78
2021/03/19 07:07:48;;;;;;;31.30;20.67;;;2.50;99.90;;;;;;4963800;28;20478;-78
2021/03/19 07:10:38;;;;;;;31.13;20.20;;;2.50;99.90;;;;;;4949073;29;20461;-80
2021/03/19 07:13:36;;;;;;;26.07;18.27;;;2.60;99.90;;;;;;4939058;28;20484;-80
2021/03/19 07:16:14;;;;;;;27.80;16.83;;;2.50;99.90;;;;;;4958368;28;20493;-77
2021/03/19 07:19:13;;;;;;;29.00;19.43;;;2.60;99.90;;;;;;4962312;28;20441;-78
2021/03/19 07:22:10;;;;;;;23.73;17.13;;;2.60;99.90;;;;;;4943874;28;20464;-81
2021/03/19 07:24:47;;;;;;;23.50;16.60;;;2.70;99.90;;;;;;4942718;29;20442;-79
2021/03/19 07:27:34;;;;;;;24.80;18.10;;;2.80;99.90;;;;;;4945504;28;20454;-79
2021/03/19 07:30:22;;;;;;;24.63;16.70;;;2.80;99.90;;;;;;5043332;28;20567;-80
2021/03/19 07:33:18;;;;;;;25.70;18.10;;;2.80;99.90;;;;;;5039554;28;20825;-79
2021/03/19 07:36:37;;;;;;;23.90;16.10;;;3.00;99.90;;;;;;5056011;28;20450;-79
2021/03/19 07:39:39;;;;;;;23.87;16.00;;;2.90;99.90;;;;;;4988250;28;20456;-79
2021/03/19 07:42:35;;;;;;;20.57;16.23;;;3.00;99.90;;;;;;4989229;28;20495;-82
2021/03/19 07:45:07;;;;;;;30.77;17.10;;;3.00;99.90;;;;;;4991906;28;20487;-79
2021/03/19 07:48:00;;;;;;;27.77;17.97;;;2.90;99.90;;;;;;4993131;28;20423;-78
2021/03/19 07:50:42;;;;;;;28.00;17.33;;;3.00;99.90;;;;;;4974721;28;20459;-79
2021/03/19 07:53:36;;;;;;;23.73;15.47;;;3.00;99.90;;;;;;4989933;28;20439;-79
2021/03/19 07:56:26;;;;;;;26.97;17.47;;;3.10;99.90;;;;;;4988391;28;20465;-78
2021/03/19 07:59:08;;;;;;;21.47;15.60;;;3.10;99.90;;;;;;4990526;28;20486;-80
2021/03/19 08:02:01;;;;;;;28.13;17.53;;;3.10;99.90;;;;;;4989745;28;20448;-79
2021/03/19 08:04:40;;;;;;;23.03;17.33;;;3.20;99.90;;;;;;4972774;28;20795;-80
2021/03/19 08:07:28;;;;;;;27.77;17.53;;;3.30;99.90;;;;;;4988704;28;20443;-80
2021/03/19 08:10:02;;;;;;;23.53;16.43;;;3.40;99.90;;;;;;4989083;28;20700;-77
2021/03/19 08:12:53;;;;;;;21.67;16.00;;;3.60;99.90;;;;;;5006075;28;20431;-79
2021/03/19 08:15:29;;;;;;;22.63;15.23;;;3.70;99.90;;;;;;5059150;28;20428;-78
2021/03/19 08:18:13;;;;;;;23.23;15.10;;;3.60;99.90;;;;;;5054894;28;20460;-79
2021/03/19 08:20:47;;;;;;;21.50;14.23;;;3.70;99.90;;;;;;5041282;28;20457;-79
2021/03/19 08:23:34;;;;;;;17.13;12.73;;;3.90;99.90;;;;;;5042646;28;20456;-80
2021/03/19 08:26:00;;;;;;;15.90;12.40;;;3.90;99.90;;;;;;5043877;28;20451;-77
2021/03/19 08:28:52;;;;;;;17.03;11.97;;;4.00;99.90;;;;;;5046037;28;20448;-79
2021/03/19 08:31:35;;;;;;;17.47;12.13;;;3.90;99.90;;;;;;5055735;28;20174;-78
2021/03/19 08:34:22;;;;;;;15.90;11.10;;;4.00;99.90;;;;;;5047212;28;20428;-80
2021/03/19 08:36:50;;;;;;;16.47;12.00;;;4.10;99.90;;;;;;5057395;28;20484;-80
2021/03/19 08:39:45;;;;;;;17.97;12.10;;;4.10;99.90;;;;;;5061151;28;20459;-79
2021/03/19 08:42:34;;;;;;;14.67;11.03;;;4.20;99.90;;;;;;5063323;28;20440;-80
2021/03/19 08:45:05;;;;;;;15.77;10.90;;;4.10;99.90;;;;;;5061794;28;20434;-77
2021/03/19 08:47:34;;;;;;;17.03;12.37;;;4.20;99.90;;;;;;5036536;28;20420;-79
2021/03/19 08:50:22;;;;;;;13.47;9.40;;;4.30;99.90;;;;;;5053021;28;20456;-80
2021/03/19 08:53:22;;;;;;;16.03;9.53;;;4.30;99.90;;;;;;5061023;28;20424;-81
2021/03/19 08:56:05;;;;;;;11.83;9.30;;;4.40;99.90;;;;;;5007353;28;20449;-78
2021/03/19 08:58:31;;;;;;;10.73;7.80;;;4.40;99.90;;;;;;5017013;28;20478;-79
2021/03/19 09:01:04;;;;;;;9.00;7.20;;;4.60;99.90;;;;;;5010784;28;20422;-79
2021/03/19 09:03:41;;;;;;;11.97;7.93;;;4.60;99.90;;;;;;5014458;28;20289;-82
2021/03/19 09:06:13;;;;;;;11.73;8.60;;;4.70;99.90;;;;;;4994820;28;20422;-79
2021/03/19 09:08:53;;;;;;;8.67;7.70;;;4.70;99.90;;;;;;5003813;28;20455;-81
2021/03/19 09:11:21;;;;;;;10.30;8.30;;;4.80;99.90;;;;;;5001666;28;20426;-79
2021/03/19 09:14:07;;;;;;;11.43;7.97;;;4.90;99.90;;;;;;5016769;28;20444;-80
2021/03/19 09:16:39;;;;;;;10.33;7.60;;;4.90;99.90;;;;;;5003745;28;20994;-79
2021/03/19 09:19:28;;;;;;;8.43;6.57;;;4.90;99.90;;;;;;4993620;28;20994;-79
2021/03/19 09:21:54;;;;;;;7.67;6.23;;;4.90;99.90;;;;;;5009983;28;20518;-79
2021/03/19 09:24:25;;;;;;;11.73;7.33;;;4.90;99.90;;;;;;5008090;28;20459;-79
2021/03/19 09:26:54;;;;;;;8.10;6.07;;;5.00;99.90;;;;;;5024115;28;20429;-80
2021/03/19 09:29:27;;;;;;;7.40;6.60;;;5.10;99.90;;;;;;5009309;28;20481;-78
2021/03/19 09:31:59;;;;;;;8.67;7.00;;;5.20;99.90;;;;;;5049259;28;20432;-80
2021/03/19 09:34:45;;;;;;;8.50;6.23;;;5.30;99.90;;;;;;5061997;28;20413;-80
2021/03/19 09:37:36;;;;;;;6.87;5.83;;;5.40;99.90;;;;;;5062859;28;20489;-79
2021/03/19 09:40:07;;;;;;;7.40;6.60;;;5.70;99.90;;;;;;5062848;28;20496;-81
2021/03/19 09:42:33;;;;;;;7.43;6.17;;;6.00;99.90;;;;;;5065031;28;20435;-79
2021/03/19 09:44:59;;;;;;;7.53;6.10;;;6.10;99.90;;;;;;5059509;28;20426;-81
2021/03/19 09:47:31;;;;;;;9.73;8.20;;;6.20;99.90;;;;;;5057068;28;20182;-80
2021/03/19 09:50:16;;;;;;;10.47;8.30;;;6.40;99.90;;;;;;5068366;28;20210;-80
2021/03/19 09:53:03;;;;;;;10.37;9.37;;;6.40;99.90;;;;;;5049670;28;20525;-80
2021/03/19 09:55:49;;;;;;;13.37;11.10;;;6.30;99.90;;;;;;5073935;28;21044;-79
2021/03/19 09:58:22;;;;;;;12.17;9.50;;;5.90;99.90;;;;;;5080819;28;20458;-79
2021/03/19 10:00:51;;;;;;;11.73;9.87;;;5.80;99.90;;;;;;5058247;28;20929;-82
2021/03/19 10:03:17;;;;;;;13.80;10.37;;;5.80;99.90;;;;;;5063394;28;20442;-80
2021/03/19 10:05:46;;;;;;;14.20;11.40;;;5.70;99.90;;;;;;5060487;28;20452;-79
2021/03/19 10:08:26;;;;;;;12.50;9.90;;;5.70;99.90;;;;;;5064683;28;20254;-80
2021/03/19 10:11:03;;;;;;;12.50;10.07;;;5.70;99.90;;;;;;5085988;28;20415;-80
2021/03/19 10:13:28;;;;;;;12.37;9.80;;;5.90;99.90;;;;;;5081836;28;20407;-81
2021/03/19 10:15:56;;;;;;;13.47;10.30;;;6.00;99.90;;;;;;5091769;28;20439;-81
2021/03/19 10:18:30;;;;;;;15.50;10.57;;;6.00;99.90;;;;;;5094211;28;20253;-80
2021/03/19 10:21:00;;;;;;;13.20;9.37;;;6.10;99.90;;;;;;5063433;28;20401;-78
2021/03/19 10:23:35;;;;;;;14.73;9.87;;;6.20;99.90;;;;;;5075546;28;20420;-79
2021/03/19 10:26:08;;;;;;;10.73;9.03;;;6.30;99.90;;;;;;5076060;28;20412;-78
2021/03/19 10:28:37;;;;;;;12.60;8.87;;;6.30;99.90;;;;;;5076171;28;20460;-79
2021/03/19 10:31:09;;;;;;;9.60;7.80;;;6.40;99.90;;;;;;5076372;28;20450;-80
2021/03/19 10:34:00;;;;;;;10.57;8.10;;;6.60;99.90;;;;;;5058876;28;20417;-79
2021/03/19 10:36:40;;;;;;;10.27;7.83;;;6.70;99.90;;;;;;5076173;28;20460;-80
2021/03/19 10:39:12;;;;;;;8.37;6.60;;;6.90;99.90;;;;;;5084517;28;20453;-79
2021/03/19 10:41:53;;;;;;;9.20;7.03;;;7.10;99.90;;;;;;5075542;28;20413;-78
2021/03/19 10:44:39;;;;;;;8.13;6.70;;;7.20;99.90;;;;;;5072943;28;20409;-79
2021/03/19 10:47:21;;;;;;;8.00;6.60;;;7.20;99.90;;;;;;5073923;28;20439;-79
2021/03/19 10:49:52;;;;;;;11.83;9.10;;;7.20;99.90;;;;;;5054928;28;20430;-77
2021/03/19 10:52:36;;;;;;;10.70;9.13;;;7.00;99.90;;;;;;5063915;28;20427;-79
2021/03/19 10:55:12;;;;;;;13.63;10.57;;;6.60;99.90;;;;;;5079573;28;20450;-78
2021/03/19 10:57:40;;;;;;;13.53;10.13;;;6.20;99.90;;;;;;5073636;28;20447;-79
2021/03/19 11:00:35;;;;;;;14.23;9.93;;;5.70;99.90;;;;;;5074215;28;20433;-81
2021/03/19 11:03:06;;;;;;;11.23;9.20;;;5.50;99.90;;;;;;5054368;28;20724;-80
2021/03/19 11:05:33;;;;;;;11.80;9.70;;;5.30;99.90;;;;;;5047243;28;20491;-80
2021/03/19 11:08:16;;;;;;;13.13;9.10;;;5.10;99.90;;;;;;5082587;28;20429;-79
2021/03/19 11:10:42;;;;;;;9.40;8.10;;;5.10;99.90;;;;;;5076120;28;20406;-80
2021/03/19 11:13:08;;;;;;;15.83;11.40;;;5.20;99.90;;;;;;5095025;28;20455;-79
2021/03/19 11:15:33;;;;;;;11.33;9.10;;;5.20;99.90;;;;;;5078633;28;20531;-78
2021/03/19 11:18:20;;;;;;;10.37;8.50;;;5.50;99.90;;;;;;5088358;28;20248;-79
2021/03/19 11:21:10;;;;;;;10.00;7.60;;;5.90;99.90;;;;;;5052966;28;20175;-79
2021/03/19 11:23:49;;;;;;;7.60;6.70;;;6.30;99.90;;;;;;5068908;28;20536;-79
2021/03/19 11:26:18;;;;;;;10.83;6.90;;;6.50;99.90;;;;;;5053083;28;20421;-79
2021/03/19 11:28:45;;;;;;;13.33;8.30;;;6.50;99.90;;;;;;5048818;28;20457;-80
2021/03/19 11:31:20;;;;;;;9.97;7.50;;;6.80;99.90;;;;;;5072699;28;20408;-78
2021/03/19 11:34:17;;;;;;;11.53;8.37;;;6.80;99.90;;;;;;5091387;28;20403;-78
2021/03/19 11:37:01;;;;;;;10.00;8.53;;;6.70;99.90;;;;;;5075475;28;20464;-77
2021/03/19 11:39:39;;;;;;;8.60;7.10;;;7.10;99.90;;;;;;5063996;28;20444;-80
2021/03/19 11:42:10;;;;;;;7.80;5.93;;;7.30;99.90;;;;;;5054485;28;20390;-80
2021/03/19 11:44:36;;;;;;;8.30;6.20;;;7.30;99.90;;;;;;5053960;28;20418;-80
2021/03/19 11:47:32;;;;;;;7.13;5.50;;;7.40;99.90;;;;;;5023282;28;20471;-79
2021/03/19 11:50:24;;;;;;;6.63;5.30;;;7.40;99.90;;;;;;4993394;28;20212;-81
2021/03/19 11:52:56;;;;;;;6.03;5.37;;;7.40;99.90;;;;;;4973184;28;20540;-78
2021/03/19 11:55:29;;;;;;;7.30;5.73;;;7.40;99.90;;;;;;4979625;28;20453;-77
2021/03/19 11:57:55;;;;;;;7.53;4.60;;;7.30;99.90;;;;;;5004808;28;20463;-80
2021/03/19 12:00:24;;;;;;;4.53;4.13;;;7.40;99.90;;;;;;4995812;28;20540;-77
2021/03/19 12:02:51;;;;;;;8.80;6.30;;;7.30;99.90;;;;;;4996920;28;20209;-80
2021/03/19 12:05:20;;;;;;;6.40;5.40;;;7.20;99.90;;;;;;4999110;28;20424;-80
2021/03/19 12:07:45;;;;;;;6.70;5.80;;;7.10;99.90;;;;;;5008230;28;20700;-79
2021/03/19 12:10:12;;;;;;;7.63;6.20;;;7.20;99.90;;;;;;5010549;28;20483;-79
2021/03/19 12:12:38;;;;;;;8.10;6.00;;;7.40;99.90;;;;;;5008815;28;20431;-81
2021/03/19 12:15:05;;;;;;;6.60;5.90;;;7.60;99.90;;;;;;4986342;28;20424;-81
2021/03/19 12:17:31;;;;;;;6.10;5.50;;;8.10;99.90;;;;;;5008270;28;20216;-80
2021/03/19 12:19:57;;;;;;;6.87;5.07;;;8.30;99.90;;;;;;4986872;28;20457;-79
2021/03/19 12:22:22;;;;;;;6.07;5.40;;;8.20;99.90;;;;;;4997616;28;20676;-78
2021/03/19 12:24:48;;;;;;;7.10;5.77;;;8.00;99.90;;;;;;4990569;28;20269;-80
2021/03/19 12:27:14;;;;;;;6.07;4.60;;;7.80;99.90;;;;;;4989040;28;20283;-79
2021/03/19 12:29:40;;;;;;;7.07;5.60;;;7.40;99.90;;;;;;5034242;28;20217;-79
2021/03/19 12:32:07;;;;;;;5.93;5.43;;;7.10;99.90;;;;;;5038068;28;20427;-82
2021/03/19 12:34:33;;;;;;;5.93;5.33;;;7.00;99.90;;;;;;5039387;28;20474;-83
2021/03/19 12:36:59;;;;;;;5.23;4.73;;;7.20;99.90;;;;;;5063743;28;20461;-81
2021/03/19 12:39:24;;;;;;;5.93;5.43;;;7.10;99.90;;;;;;5063679;28;20481;-80
2021/03/19 12:41:50;;;;;;;6.20;4.70;;;7.20;99.90;;;;;;5059284;28;20187;-82
2021/03/19 12:44:16;;;;;;;4.20;3.77;;;7.30;99.90;;;;;;5044016;28;20208;-81
2021/03/19 12:46:42;;;;;;;4.50;3.83;;;7.80;99.90;;;;;;5045782;28;20183;-81
2021/03/19 12:49:08;;;;;;;4.73;4.00;;;8.30;99.90;;;;;;5037650;28;21034;-82
2021/03/19 12:51:34;;;;;;;6.17;4.50;;;9.00;99.90;;;;;;5076454;28;20194;-82
2021/03/19 12:54:00;;;;;;;5.80;4.73;;;9.60;99.90;;;;;;5068830;28;20189;-81
2021/03/19 12:56:26;;;;;;;5.23;4.53;;;10.20;99.20;;;;;;5058840;28;20500;-79
2021/03/19 12:58:51;;;;;;;5.63;5.03;;;10.80;99.30;;;;;;5066727;28;20428;-78
2021/03/19 13:01:20;;;;;;;6.13;5.53;;;11.40;97.40;;;;;;5061614;28;20466;-80
2021/03/19 13:03:48;;;;;;;6.07;5.47;;;11.90;96.30;;;;;;5068206;28;20182;-79
2021/03/19 13:06:16;;;;;;;5.87;5.27;;;12.00;93.70;;;;;;5060515;28;20438;-78
2021/03/19 13:08:42;;;;;;;6.57;5.30;;;11.70;92.00;;;;;;5060106;28;20517;-81
2021/03/19 13:11:08;;;;;;;6.37;5.37;;;11.60;90.80;;;;;;5043222;28;20421;-79
2021/03/19 13:13:34;;;;;;;6.30;5.30;;;11.50;91.90;;;;;;5061985;28;20172;-79
2021/03/19 13:16:00;;;;;;;5.67;4.80;;;11.40;91.40;;;;;;5045452;28;20852;-80